WZZ1213 LGSK-LROP
Flight info
| Callsign | WZZ1213 |
|---|---|
| Flight time | 1h 25m |
| Altitude | 35000 |
| Route | TSL UM987 ATFIR M987 SOMOV Z937 SORDU |
| Aircraft | A20N/M-SDE2E3FGHIRWXY/LB1 |
Departure
| Time | 2026-04-16 12:15 |
|---|---|
| Airport | Skiathos Island National Airport (LGSK) |
Arrival
| Time | 2026-04-16 13:41 |
|---|---|
| Airport | Bucharest Henri Coandă International Airport (LROP) |
| Time | Latitude | Longitude | Altitude | Speed | Heading |
|---|---|---|---|---|---|
| 2026-04-16 12:04 | 39.17612 | 23.50171 | 37 ft | 0 kts | 281° |
| 2026-04-16 12:09 | 39.17612 | 23.50173 | 37 ft | 2 kts | 281° |
| 2026-04-16 12:10 | 39.17611 | 23.50195 | 38 ft | 2 kts | 232° |
| 2026-04-16 12:10 | 39.17621 | 23.50204 | 34 ft | 0 kts | 179° |
| 2026-04-16 12:12 | 39.17618 | 23.50205 | 37 ft | 2 kts | 178° |
| 2026-04-16 12:13 | 39.17585 | 23.50213 | 38 ft | 7 kts | 157° |
| 2026-04-16 12:13 | 39.17533 | 23.50260 | 38 ft | 11 kts | 169° |
| 2026-04-16 12:13 | 39.17429 | 23.50230 | 35 ft | 20 kts | 196° |
| 2026-04-16 12:13 | 39.17282 | 23.50154 | 27 ft | 25 kts | 202° |
| 2026-04-16 12:14 | 39.17136 | 23.50082 | 23 ft | 21 kts | 201° |
| 2026-04-16 12:14 | 39.17038 | 23.50048 | 21 ft | 2 kts | 136° |
| 2026-04-16 12:14 | 39.17039 | 23.50054 | 21 ft | 0 kts | 72° |
| 2026-04-16 12:14 | 39.17049 | 23.50065 | 22 ft | 3 kts | 22° |
| 2026-04-16 12:15 | 39.17160 | 23.50114 | 27 ft | 45 kts | 18° |
| 2026-04-16 12:15 | 39.17666 | 23.50339 | 44 ft | 108 kts | 19° |
| 2026-04-16 12:15 | 39.18566 | 23.50741 | 135 ft | 155 kts | 18° |
| 2026-04-16 12:15 | 39.19586 | 23.51227 | 752 ft | 158 kts | 20° |
| 2026-04-16 12:16 | 39.20630 | 23.51723 | 1440 ft | 162 kts | 20° |
| 2026-04-16 12:16 | 39.21704 | 23.52236 | 2125 ft | 166 kts | 21° |
| 2026-04-16 12:16 | 39.22879 | 23.52588 | 2597 ft | 185 kts | 5° |
| 2026-04-16 12:16 | 39.24219 | 23.52441 | 3040 ft | 201 kts | 355° |
| 2026-04-16 12:17 | 39.25623 | 23.52024 | 3522 ft | 212 kts | 349° |
| 2026-04-16 12:17 | 39.27062 | 23.51437 | 3932 ft | 228 kts | 346° |
| 2026-04-16 12:17 | 39.28602 | 23.50732 | 4342 ft | 244 kts | 344° |
| 2026-04-16 12:17 | 39.30267 | 23.49952 | 4751 ft | 261 kts | 344° |
| 2026-04-16 12:18 | 39.32005 | 23.49144 | 5341 ft | 269 kts | 343° |
| 2026-04-16 12:18 | 39.33780 | 23.48333 | 5962 ft | 272 kts | 343° |
| 2026-04-16 12:18 | 39.35587 | 23.47525 | 6559 ft | 277 kts | 343° |
| 2026-04-16 12:18 | 39.37435 | 23.46713 | 7117 ft | 282 kts | 343° |
| 2026-04-16 12:19 | 39.39305 | 23.45900 | 7685 ft | 285 kts | 342° |
| 2026-04-16 12:19 | 39.41178 | 23.45090 | 8252 ft | 288 kts | 342° |
| 2026-04-16 12:19 | 39.43094 | 23.44262 | 8832 ft | 292 kts | 342° |
| 2026-04-16 12:19 | 39.45035 | 23.43423 | 9430 ft | 295 kts | 341° |
| 2026-04-16 12:20 | 39.46995 | 23.42573 | 10030 ft | 299 kts | 342° |
| 2026-04-16 12:20 | 39.48991 | 23.41709 | 10585 ft | 306 kts | 342° |
| 2026-04-16 12:20 | 39.51045 | 23.40819 | 11165 ft | 315 kts | 342° |
| 2026-04-16 12:20 | 39.53157 | 23.39903 | 11743 ft | 324 kts | 342° |
| 2026-04-16 12:21 | 39.55329 | 23.38960 | 12336 ft | 333 kts | 342° |
| 2026-04-16 12:21 | 39.57530 | 23.38002 | 12939 ft | 341 kts | 342° |
| 2026-04-16 12:21 | 39.59806 | 23.37011 | 13550 ft | 349 kts | 342° |
| 2026-04-16 12:21 | 39.62130 | 23.35999 | 14135 ft | 356 kts | 342° |
| 2026-04-16 12:22 | 39.64497 | 23.34967 | 14687 ft | 360 kts | 342° |
| 2026-04-16 12:22 | 39.66878 | 23.33927 | 15246 ft | 362 kts | 341° |
| 2026-04-16 12:22 | 39.69281 | 23.32877 | 15812 ft | 365 kts | 341° |
| 2026-04-16 12:22 | 39.71699 | 23.31820 | 16387 ft | 369 kts | 341° |
| 2026-04-16 12:23 | 39.74150 | 23.30748 | 16973 ft | 373 kts | 341° |
| 2026-04-16 12:23 | 39.76619 | 23.29667 | 17582 ft | 376 kts | 341° |
| 2026-04-16 12:23 | 39.79112 | 23.28575 | 18195 ft | 380 kts | 341° |
| 2026-04-16 12:23 | 39.81632 | 23.27470 | 18747 ft | 383 kts | 341° |
| 2026-04-16 12:24 | 39.84169 | 23.26358 | 19289 ft | 387 kts | 341° |
| 2026-04-16 12:24 | 39.86729 | 23.25235 | 19837 ft | 390 kts | 341° |
| 2026-04-16 12:24 | 39.89277 | 23.24116 | 20392 ft | 392 kts | 341° |
| 2026-04-16 12:24 | 39.91868 | 23.22977 | 20961 ft | 394 kts | 341° |
| 2026-04-16 12:25 | 39.94475 | 23.21831 | 21542 ft | 396 kts | 341° |
| 2026-04-16 12:25 | 39.97088 | 23.20680 | 22139 ft | 397 kts | 341° |
| 2026-04-16 12:25 | 39.99716 | 23.19522 | 22739 ft | 398 kts | 341° |
| 2026-04-16 12:25 | 40.02345 | 23.18363 | 23347 ft | 399 kts | 341° |
| 2026-04-16 12:26 | 40.04979 | 23.17200 | 23920 ft | 399 kts | 341° |
| 2026-04-16 12:26 | 40.07617 | 23.16035 | 24456 ft | 399 kts | 341° |
| 2026-04-16 12:26 | 40.10251 | 23.14870 | 24990 ft | 399 kts | 341° |
| 2026-04-16 12:26 | 40.12872 | 23.13710 | 25539 ft | 397 kts | 341° |
| 2026-04-16 12:27 | 40.15487 | 23.12552 | 26099 ft | 396 kts | 341° |
| 2026-04-16 12:27 | 40.18088 | 23.11399 | 26667 ft | 393 kts | 341° |
| 2026-04-16 12:27 | 40.20638 | 23.10268 | 27244 ft | 391 kts | 341° |
| 2026-04-16 12:27 | 40.23205 | 23.09129 | 27835 ft | 387 kts | 341° |
| 2026-04-16 12:28 | 40.25747 | 23.08000 | 28436 ft | 383 kts | 341° |
| 2026-04-16 12:28 | 40.28259 | 23.06883 | 29054 ft | 378 kts | 341° |
| 2026-04-16 12:28 | 40.30732 | 23.05782 | 29677 ft | 373 kts | 341° |
| 2026-04-16 12:28 | 40.33172 | 23.04696 | 30300 ft | 366 kts | 340° |
| 2026-04-16 12:29 | 40.35561 | 23.03632 | 30846 ft | 359 kts | 340° |
| 2026-04-16 12:29 | 40.37900 | 23.02589 | 31401 ft | 350 kts | 340° |
| 2026-04-16 12:29 | 40.40175 | 23.01575 | 31962 ft | 340 kts | 340° |
| 2026-04-16 12:29 | 40.42381 | 23.00624 | 32526 ft | 328 kts | 344° |
| 2026-04-16 12:30 | 40.44579 | 23.00080 | 33082 ft | 316 kts | 355° |
| 2026-04-16 12:30 | 40.46765 | 23.00103 | 33261 ft | 315 kts | 9° |
| 2026-04-16 12:30 | 40.50985 | 23.01557 | 33369 ft | 316 kts | 19° |
| 2026-04-16 12:31 | 40.53058 | 23.02518 | 33497 ft | 314 kts | 21° |
| 2026-04-16 12:31 | 40.55088 | 23.03524 | 33752 ft | 307 kts | 21° |
| 2026-04-16 12:31 | 40.57062 | 23.04523 | 34001 ft | 299 kts | 21° |
| 2026-04-16 12:31 | 40.58988 | 23.05497 | 34082 ft | 298 kts | 21° |
| 2026-04-16 12:32 | 40.61050 | 23.06542 | 32926 ft | 341 kts | 21° |
| 2026-04-16 12:32 | 40.63406 | 23.07741 | 31892 ft | 382 kts | 21° |
| 2026-04-16 12:32 | 40.65991 | 23.09060 | 31103 ft | 414 kts | 21° |
| 2026-04-16 12:32 | 40.68769 | 23.10480 | 30505 ft | 440 kts | 21° |
| 2026-04-16 12:33 | 40.71671 | 23.11976 | 29884 ft | 465 kts | 21° |
| 2026-04-16 12:33 | 40.74736 | 23.13674 | 29235 ft | 489 kts | 26° |
| 2026-04-16 12:33 | 40.80585 | 23.18290 | 29235 ft | 481 kts | 33° |
| 2026-04-16 12:34 | 40.83381 | 23.20702 | 29740 ft | 478 kts | 33° |
| 2026-04-16 12:34 | 40.86095 | 23.23095 | 30047 ft | 461 kts | 34° |
| 2026-04-16 12:34 | 40.91345 | 23.27788 | 30086 ft | 452 kts | 34° |
| 2026-04-16 12:35 | 40.96533 | 23.32440 | 30089 ft | 455 kts | 34° |
| 2026-04-16 12:35 | 41.01842 | 23.37193 | 30087 ft | 463 kts | 33° |
| 2026-04-16 12:36 | 41.07200 | 23.41988 | 30085 ft | 463 kts | 34° |
| 2026-04-16 12:36 | 41.12548 | 23.46782 | 30087 ft | 465 kts | 34° |
| 2026-04-16 12:37 | 41.17874 | 23.51568 | 30084 ft | 461 kts | 34° |
| 2026-04-16 12:37 | 41.23253 | 23.56063 | 30089 ft | 454 kts | 27° |
| 2026-04-16 12:38 | 41.28903 | 23.59857 | 30091 ft | 454 kts | 26° |
| 2026-04-16 12:38 | 41.34601 | 23.63513 | 30090 ft | 454 kts | 25° |
| 2026-04-16 12:39 | 41.40309 | 23.67147 | 30094 ft | 455 kts | 25° |
| 2026-04-16 12:39 | 41.45996 | 23.70785 | 30095 ft | 455 kts | 25° |
| 2026-04-16 12:40 | 41.51711 | 23.74459 | 30100 ft | 455 kts | 25° |
| 2026-04-16 12:40 | 41.56469 | 23.77526 | 30101 ft | 458 kts | 25° |
| 2026-04-16 12:41 | 41.62216 | 23.81238 | 30108 ft | 459 kts | 25° |
| 2026-04-16 12:41 | 41.67971 | 23.84962 | 30120 ft | 459 kts | 25° |
| 2026-04-16 12:42 | 41.73722 | 23.88690 | 30114 ft | 460 kts | 25° |
| 2026-04-16 12:42 | 41.79490 | 23.92437 | 30115 ft | 460 kts | 25° |
| 2026-04-16 12:43 | 41.85255 | 23.96190 | 30127 ft | 460 kts | 24° |
| 2026-04-16 12:43 | 41.90985 | 23.99928 | 30138 ft | 461 kts | 24° |
| 2026-04-16 12:44 | 41.96763 | 24.03705 | 30139 ft | 460 kts | 24° |
| 2026-04-16 12:44 | 42.02522 | 24.07476 | 30139 ft | 460 kts | 24° |
| 2026-04-16 12:45 | 42.08259 | 24.11241 | 30142 ft | 462 kts | 24° |
| 2026-04-16 12:45 | 42.14041 | 24.15042 | 30140 ft | 462 kts | 24° |
| 2026-04-16 12:46 | 42.19821 | 24.18851 | 30143 ft | 462 kts | 24° |
| 2026-04-16 12:46 | 42.25593 | 24.22662 | 30140 ft | 462 kts | 24° |
| 2026-04-16 12:47 | 42.31370 | 24.26483 | 30140 ft | 462 kts | 24° |
| 2026-04-16 12:47 | 42.37103 | 24.30284 | 30139 ft | 462 kts | 24° |
| 2026-04-16 12:48 | 42.42878 | 24.34120 | 30138 ft | 462 kts | 24° |
| 2026-04-16 12:48 | 42.45762 | 24.36039 | 29890 ft | 458 kts | 24° |
| 2026-04-16 12:48 | 42.48597 | 24.37930 | 29579 ft | 450 kts | 24° |
| 2026-04-16 12:49 | 42.51385 | 24.39791 | 29112 ft | 445 kts | 24° |
| 2026-04-16 12:49 | 42.54151 | 24.41638 | 28651 ft | 440 kts | 23° |
| 2026-04-16 12:49 | 42.56886 | 24.43465 | 28195 ft | 436 kts | 24° |
| 2026-04-16 12:49 | 42.59593 | 24.45275 | 27744 ft | 432 kts | 24° |
| 2026-04-16 12:50 | 42.62283 | 24.47076 | 27298 ft | 428 kts | 24° |
| 2026-04-16 12:50 | 42.64938 | 24.48854 | 26870 ft | 423 kts | 24° |
| 2026-04-16 12:50 | 42.67566 | 24.50616 | 26436 ft | 419 kts | 24° |
| 2026-04-16 12:50 | 42.70143 | 24.52346 | 26024 ft | 416 kts | 24° |
| 2026-04-16 12:51 | 42.72735 | 24.54087 | 25612 ft | 412 kts | 24° |
| 2026-04-16 12:51 | 42.75295 | 24.55809 | 25197 ft | 408 kts | 25° |
| 2026-04-16 12:51 | 42.77829 | 24.57514 | 24794 ft | 405 kts | 25° |
| 2026-04-16 12:51 | 42.80340 | 24.59205 | 24392 ft | 401 kts | 25° |
| 2026-04-16 12:52 | 42.82827 | 24.60882 | 24002 ft | 397 kts | 25° |
| 2026-04-16 12:52 | 42.85298 | 24.62550 | 23618 ft | 393 kts | 25° |
| 2026-04-16 12:52 | 42.87734 | 24.64197 | 23207 ft | 388 kts | 25° |
| 2026-04-16 12:52 | 42.90142 | 24.65825 | 22801 ft | 383 kts | 25° |
| 2026-04-16 12:53 | 42.92488 | 24.67413 | 22403 ft | 379 kts | 25° |
| 2026-04-16 12:53 | 42.94838 | 24.69005 | 22016 ft | 375 kts | 25° |
| 2026-04-16 12:53 | 42.97167 | 24.70583 | 21623 ft | 372 kts | 25° |
| 2026-04-16 12:53 | 42.99479 | 24.72151 | 21240 ft | 370 kts | 25° |
| 2026-04-16 12:54 | 43.01784 | 24.73715 | 20861 ft | 368 kts | 26° |
| 2026-04-16 12:54 | 43.04075 | 24.75272 | 20490 ft | 366 kts | 25° |
| 2026-04-16 12:54 | 43.06349 | 24.76818 | 20114 ft | 363 kts | 26° |
| 2026-04-16 12:54 | 43.08606 | 24.78355 | 19756 ft | 361 kts | 26° |
| 2026-04-16 12:55 | 43.10850 | 24.79884 | 19393 ft | 359 kts | 26° |
| 2026-04-16 12:55 | 43.13077 | 24.81402 | 19034 ft | 357 kts | 26° |
| 2026-04-16 12:55 | 43.15298 | 24.82918 | 18691 ft | 359 kts | 26° |
| 2026-04-16 12:55 | 43.17604 | 24.84491 | 18347 ft | 381 kts | 26° |
| 2026-04-16 12:56 | 43.20007 | 24.86134 | 17957 ft | 389 kts | 26° |
| 2026-04-16 12:56 | 43.22407 | 24.87776 | 17556 ft | 390 kts | 26° |
| 2026-04-16 12:56 | 43.24888 | 24.89474 | 17179 ft | 411 kts | 26° |
| 2026-04-16 12:56 | 43.27500 | 24.91263 | 16803 ft | 424 kts | 26° |
| 2026-04-16 12:57 | 43.30148 | 24.93079 | 16425 ft | 426 kts | 26° |
| 2026-04-16 12:57 | 43.32795 | 24.94897 | 16048 ft | 424 kts | 26° |
| 2026-04-16 12:57 | 43.35427 | 24.96708 | 15676 ft | 421 kts | 26° |
| 2026-04-16 12:57 | 43.38041 | 24.98507 | 15308 ft | 419 kts | 26° |
| 2026-04-16 12:58 | 43.40644 | 25.00301 | 14942 ft | 417 kts | 26° |
| 2026-04-16 12:58 | 43.43230 | 25.02085 | 14583 ft | 415 kts | 26° |
| 2026-04-16 12:58 | 43.45796 | 25.03856 | 14225 ft | 412 kts | 26° |
| 2026-04-16 12:58 | 43.48353 | 25.05622 | 13868 ft | 410 kts | 26° |
| 2026-04-16 12:59 | 43.50898 | 25.07382 | 13471 ft | 408 kts | 26° |
| 2026-04-16 12:59 | 43.53435 | 25.09126 | 13070 ft | 404 kts | 25° |
| 2026-04-16 12:59 | 43.55887 | 25.10793 | 12771 ft | 390 kts | 25° |
| 2026-04-16 13:00 | 43.60541 | 25.13959 | 12485 ft | 356 kts | 25° |
| 2026-04-16 13:00 | 43.62717 | 25.15449 | 12347 ft | 341 kts | 25° |
| 2026-04-16 13:00 | 43.64791 | 25.16892 | 12207 ft | 327 kts | 25° |
| 2026-04-16 13:00 | 43.66784 | 25.18293 | 11993 ft | 318 kts | 25° |
| 2026-04-16 13:01 | 43.68744 | 25.19668 | 11646 ft | 314 kts | 25° |
| 2026-04-16 13:01 | 43.70698 | 25.21037 | 11433 ft | 314 kts | 25° |
| 2026-04-16 13:01 | 43.72653 | 25.22403 | 11236 ft | 315 kts | 25° |
| 2026-04-16 13:01 | 43.74605 | 25.23767 | 11039 ft | 314 kts | 25° |
| 2026-04-16 13:02 | 43.76529 | 25.25111 | 10838 ft | 305 kts | 25° |
| 2026-04-16 13:02 | 43.78370 | 25.26401 | 10651 ft | 296 kts | 26° |
| 2026-04-16 13:02 | 43.80190 | 25.27676 | 10504 ft | 291 kts | 26° |
| 2026-04-16 13:02 | 43.81997 | 25.28942 | 10348 ft | 291 kts | 26° |
| 2026-04-16 13:03 | 43.83848 | 25.30238 | 10225 ft | 315 kts | 26° |
| 2026-04-16 13:03 | 43.85905 | 25.31672 | 10034 ft | 341 kts | 26° |
| 2026-04-16 13:03 | 43.88043 | 25.33168 | 9802 ft | 346 kts | 26° |
| 2026-04-16 13:03 | 43.90191 | 25.34676 | 9561 ft | 345 kts | 26° |
| 2026-04-16 13:04 | 43.92328 | 25.36178 | 9329 ft | 343 kts | 26° |
| 2026-04-16 13:04 | 43.94451 | 25.37671 | 9096 ft | 341 kts | 26° |
| 2026-04-16 13:04 | 43.96538 | 25.39139 | 8858 ft | 339 kts | 26° |
| 2026-04-16 13:04 | 43.98636 | 25.40616 | 8639 ft | 338 kts | 26° |
| 2026-04-16 13:05 | 44.00738 | 25.42098 | 8408 ft | 336 kts | 26° |
| 2026-04-16 13:05 | 44.02811 | 25.43559 | 8176 ft | 328 kts | 26° |
| 2026-04-16 13:05 | 44.04877 | 25.44757 | 7947 ft | 315 kts | 18° |
| 2026-04-16 13:05 | 44.06920 | 25.45580 | 7716 ft | 304 kts | 15° |
| 2026-04-16 13:06 | 44.08933 | 25.46314 | 7473 ft | 293 kts | 14° |
| 2026-04-16 13:06 | 44.10875 | 25.47014 | 7249 ft | 283 kts | 14° |
| 2026-04-16 13:06 | 44.12752 | 25.47692 | 7135 ft | 273 kts | 14° |
| 2026-04-16 13:06 | 44.14580 | 25.48356 | 7131 ft | 271 kts | 15° |
| 2026-04-16 13:07 | 44.16410 | 25.49022 | 7134 ft | 272 kts | 15° |
| 2026-04-16 13:07 | 44.18244 | 25.49692 | 7133 ft | 273 kts | 15° |
| 2026-04-16 13:07 | 44.20064 | 25.50357 | 7131 ft | 273 kts | 15° |
| 2026-04-16 13:07 | 44.21899 | 25.51028 | 7133 ft | 273 kts | 15° |
| 2026-04-16 13:08 | 44.23753 | 25.51573 | 7136 ft | 273 kts | 6° |
| 2026-04-16 13:08 | 44.25650 | 25.51560 | 7133 ft | 273 kts | 355° |
| 2026-04-16 13:08 | 44.27546 | 25.51295 | 7137 ft | 274 kts | 353° |
| 2026-04-16 13:08 | 44.29433 | 25.50987 | 7132 ft | 269 kts | 353° |
| 2026-04-16 13:09 | 44.31274 | 25.50685 | 7133 ft | 264 kts | 354° |
| 2026-04-16 13:09 | 44.33093 | 25.50391 | 7134 ft | 263 kts | 354° |
| 2026-04-16 13:09 | 44.34912 | 25.50099 | 7137 ft | 263 kts | 354° |
| 2026-04-16 13:09 | 44.36713 | 25.49812 | 7126 ft | 254 kts | 354° |
| 2026-04-16 13:10 | 44.38452 | 25.49537 | 7140 ft | 256 kts | 354° |
| 2026-04-16 13:10 | 44.40287 | 25.49247 | 7142 ft | 271 kts | 354° |
| 2026-04-16 13:10 | 44.42156 | 25.48950 | 7139 ft | 275 kts | 354° |
| 2026-04-16 13:10 | 44.44013 | 25.48656 | 7126 ft | 260 kts | 354° |
| 2026-04-16 13:11 | 44.45762 | 25.48379 | 7122 ft | 245 kts | 353° |
| 2026-04-16 13:11 | 44.47440 | 25.48116 | 7138 ft | 241 kts | 353° |
| 2026-04-16 13:11 | 44.49103 | 25.47989 | 7150 ft | 238 kts | 4° |
| 2026-04-16 13:11 | 44.50638 | 25.48672 | 7120 ft | 224 kts | 34° |
| 2026-04-16 13:12 | 44.51578 | 25.50268 | 7140 ft | 207 kts | 55° |
| 2026-04-16 13:12 | 44.52162 | 25.51947 | 7109 ft | 181 kts | 72° |
| 2026-04-16 13:12 | 44.52391 | 25.53587 | 7127 ft | 167 kts | 81° |
| 2026-04-16 13:12 | 44.52509 | 25.55116 | 7137 ft | 151 kts | 81° |
| 2026-04-16 13:13 | 44.52614 | 25.56575 | 6766 ft | 151 kts | 82° |
| 2026-04-16 13:13 | 44.52726 | 25.58026 | 6393 ft | 149 kts | 82° |
| 2026-04-16 13:13 | 44.52841 | 25.59496 | 5863 ft | 156 kts | 81° |
| 2026-04-16 13:13 | 44.52966 | 25.61071 | 5219 ft | 170 kts | 81° |
| 2026-04-16 13:14 | 44.53106 | 25.62788 | 4556 ft | 183 kts | 81° |
| 2026-04-16 13:14 | 44.53245 | 25.64526 | 4271 ft | 175 kts | 82° |
| 2026-04-16 13:14 | 44.53373 | 25.66135 | 4086 ft | 157 kts | 82° |
| 2026-04-16 13:14 | 44.53486 | 25.67583 | 3810 ft | 147 kts | 82° |
| 2026-04-16 13:15 | 44.53591 | 25.68986 | 3477 ft | 143 kts | 84° |
| 2026-04-16 13:15 | 44.53690 | 25.70365 | 3094 ft | 141 kts | 84° |
| 2026-04-16 13:15 | 44.53784 | 25.71724 | 2750 ft | 140 kts | 84° |
| 2026-04-16 13:15 | 44.53875 | 25.73035 | 2581 ft | 131 kts | 85° |
| 2026-04-16 13:16 | 44.53966 | 25.74316 | 2628 ft | 133 kts | 85° |
| 2026-04-16 13:16 | 44.54065 | 25.75682 | 2676 ft | 154 kts | 84° |
| 2026-04-16 13:16 | 44.54179 | 25.77248 | 2652 ft | 166 kts | 85° |
| 2026-04-16 13:16 | 44.54300 | 25.78871 | 2632 ft | 169 kts | 84° |
| 2026-04-16 13:17 | 44.54428 | 25.80529 | 2635 ft | 173 kts | 84° |
| 2026-04-16 13:17 | 44.54557 | 25.82199 | 2630 ft | 175 kts | 84° |
| 2026-04-16 13:17 | 44.54686 | 25.83887 | 2614 ft | 168 kts | 84° |
| 2026-04-16 13:17 | 44.54800 | 25.85376 | 2602 ft | 142 kts | 84° |
| 2026-04-16 13:18 | 44.54902 | 25.86697 | 2616 ft | 133 kts | 84° |
| 2026-04-16 13:18 | 44.54998 | 25.87982 | 2629 ft | 133 kts | 84° |
| 2026-04-16 13:18 | 44.55093 | 25.89271 | 2616 ft | 134 kts | 84° |
| 2026-04-16 13:18 | 44.55187 | 25.90567 | 2513 ft | 133 kts | 84° |
| 2026-04-16 13:19 | 44.55282 | 25.91859 | 2364 ft | 134 kts | 84° |
| 2026-04-16 13:19 | 44.55379 | 25.93136 | 2176 ft | 133 kts | 84° |
| 2026-04-16 13:19 | 44.55476 | 25.94423 | 2011 ft | 132 kts | 85° |
| 2026-04-16 13:19 | 44.55572 | 25.95706 | 1841 ft | 132 kts | 85° |
| 2026-04-16 13:20 | 44.55669 | 25.96992 | 1691 ft | 132 kts | 85° |
| 2026-04-16 13:20 | 44.55765 | 25.98271 | 1527 ft | 131 kts | 85° |
| 2026-04-16 13:20 | 44.55860 | 25.99541 | 1358 ft | 129 kts | 86° |
| 2026-04-16 13:20 | 44.55919 | 26.00325 | 1265 ft | 130 kts | 86° |
| 2026-04-16 13:21 | 44.56002 | 26.01434 | 1136 ft | 131 kts | 85° |
| 2026-04-16 13:21 | 44.56101 | 26.02726 | 1505 ft | 136 kts | 84° |
| 2026-04-16 13:21 | 44.56209 | 26.04135 | 2084 ft | 153 kts | 85° |
| 2026-04-16 13:21 | 44.56320 | 26.05682 | 2712 ft | 167 kts | 86° |
| 2026-04-16 13:22 | 44.56429 | 26.07426 | 3295 ft | 191 kts | 86° |
| 2026-04-16 13:22 | 44.56546 | 26.09376 | 3980 ft | 210 kts | 84° |
| 2026-04-16 13:22 | 44.56710 | 26.11553 | 4511 ft | 240 kts | 82° |
| 2026-04-16 13:22 | 44.56921 | 26.14068 | 4803 ft | 279 kts | 82° |
| 2026-04-16 13:23 | 44.57152 | 26.16900 | 4821 ft | 291 kts | 82° |
| 2026-04-16 13:23 | 44.57370 | 26.19624 | 4718 ft | 276 kts | 83° |
| 2026-04-16 13:23 | 44.57579 | 26.22243 | 4552 ft | 265 kts | 83° |
| 2026-04-16 13:23 | 44.57782 | 26.24780 | 4381 ft | 260 kts | 83° |
| 2026-04-16 13:24 | 44.57981 | 26.27277 | 4208 ft | 254 kts | 83° |
| 2026-04-16 13:24 | 44.58177 | 26.29708 | 4002 ft | 247 kts | 83° |
| 2026-04-16 13:24 | 44.58369 | 26.32077 | 3745 ft | 242 kts | 83° |
| 2026-04-16 13:24 | 44.58560 | 26.34403 | 3484 ft | 238 kts | 83° |
| 2026-04-16 13:25 | 44.58897 | 26.36632 | 3180 ft | 236 kts | 65° |
| 2026-04-16 13:25 | 44.59945 | 26.38357 | 2929 ft | 235 kts | 34° |
| 2026-04-16 13:25 | 44.61495 | 26.39034 | 2669 ft | 238 kts | 2° |
| 2026-04-16 13:25 | 44.63088 | 26.38461 | 2412 ft | 241 kts | 329° |
| 2026-04-16 13:26 | 44.64243 | 26.36787 | 2257 ft | 240 kts | 295° |
| 2026-04-16 13:26 | 44.64718 | 26.34516 | 2636 ft | 247 kts | 279° |
| 2026-04-16 13:26 | 44.64962 | 26.32121 | 3403 ft | 248 kts | 277° |
| 2026-04-16 13:26 | 44.65163 | 26.29728 | 3922 ft | 243 kts | 277° |
| 2026-04-16 13:27 | 44.65331 | 26.27399 | 4115 ft | 237 kts | 276° |
| 2026-04-16 13:27 | 44.65484 | 26.25102 | 4142 ft | 235 kts | 276° |
| 2026-04-16 13:27 | 44.65642 | 26.22806 | 4174 ft | 237 kts | 276° |
| 2026-04-16 13:27 | 44.65747 | 26.21268 | 4137 ft | 239 kts | 276° |
| 2026-04-16 13:28 | 44.65903 | 26.18925 | 4125 ft | 241 kts | 276° |
| 2026-04-16 13:28 | 44.66116 | 26.15823 | 4130 ft | 239 kts | 276° |
| 2026-04-16 13:28 | 44.66281 | 26.13502 | 4126 ft | 239 kts | 276° |
| 2026-04-16 13:28 | 44.66445 | 26.11184 | 4129 ft | 239 kts | 276° |
| 2026-04-16 13:29 | 44.66556 | 26.09607 | 4130 ft | 240 kts | 276° |
| 2026-04-16 13:29 | 44.66718 | 26.07297 | 4137 ft | 241 kts | 276° |
| 2026-04-16 13:29 | 44.66826 | 26.04952 | 4062 ft | 239 kts | 270° |
| 2026-04-16 13:29 | 44.66756 | 26.02625 | 3526 ft | 238 kts | 266° |
| 2026-04-16 13:30 | 44.66654 | 26.00296 | 3197 ft | 240 kts | 266° |
| 2026-04-16 13:30 | 44.66558 | 25.97962 | 3128 ft | 238 kts | 266° |
| 2026-04-16 13:30 | 44.66467 | 25.95638 | 3132 ft | 238 kts | 266° |
| 2026-04-16 13:30 | 44.66377 | 25.93328 | 3132 ft | 236 kts | 266° |
| 2026-04-16 13:31 | 44.66289 | 25.91020 | 3132 ft | 237 kts | 266° |
| 2026-04-16 13:31 | 44.66199 | 25.88708 | 3134 ft | 237 kts | 266° |
| 2026-04-16 13:31 | 44.66106 | 25.86401 | 3135 ft | 236 kts | 266° |
| 2026-04-16 13:31 | 44.66010 | 25.84108 | 3127 ft | 235 kts | 266° |
| 2026-04-16 13:32 | 44.65915 | 25.81805 | 3128 ft | 236 kts | 266° |
| 2026-04-16 13:32 | 44.65705 | 25.79551 | 3105 ft | 235 kts | 251° |
| 2026-04-16 13:32 | 44.64826 | 25.77671 | 2744 ft | 229 kts | 217° |
| 2026-04-16 13:32 | 44.63469 | 25.76845 | 2622 ft | 202 kts | 185° |
| 2026-04-16 13:33 | 44.62144 | 25.76748 | 2610 ft | 177 kts | 177° |
| 2026-04-16 13:33 | 44.61004 | 25.76763 | 2632 ft | 150 kts | 176° |
| 2026-04-16 13:33 | 44.60019 | 25.76782 | 2619 ft | 136 kts | 176° |
| 2026-04-16 13:33 | 44.59075 | 25.76798 | 2632 ft | 136 kts | 176° |
| 2026-04-16 13:34 | 44.58128 | 25.76810 | 2631 ft | 136 kts | 176° |
| 2026-04-16 13:34 | 44.57184 | 25.76880 | 2614 ft | 135 kts | 161° |
| 2026-04-16 13:34 | 44.56479 | 25.77629 | 2637 ft | 130 kts | 125° |
| 2026-04-16 13:34 | 44.56016 | 25.78723 | 2636 ft | 131 kts | 114° |
| 2026-04-16 13:35 | 44.55734 | 25.79944 | 2636 ft | 132 kts | 98° |
| 2026-04-16 13:35 | 44.55716 | 25.81238 | 2635 ft | 133 kts | 88° |
| 2026-04-16 13:35 | 44.55778 | 25.82536 | 2642 ft | 133 kts | 86° |
| 2026-04-16 13:35 | 44.55856 | 25.83824 | 2626 ft | 132 kts | 85° |
| 2026-04-16 13:36 | 44.55924 | 25.85109 | 2639 ft | 131 kts | 85° |
| 2026-04-16 13:36 | 44.56011 | 25.86369 | 2628 ft | 131 kts | 85° |
| 2026-04-16 13:36 | 44.56108 | 25.87641 | 2400 ft | 132 kts | 85° |
| 2026-04-16 13:36 | 44.56206 | 25.88945 | 2138 ft | 133 kts | 85° |
| 2026-04-16 13:37 | 44.56302 | 25.90213 | 2120 ft | 131 kts | 84° |
| 2026-04-16 13:37 | 44.56396 | 25.91479 | 2126 ft | 130 kts | 85° |
| 2026-04-16 13:37 | 44.56491 | 25.92752 | 2138 ft | 132 kts | 85° |
| 2026-04-16 13:37 | 44.56587 | 25.94028 | 2128 ft | 132 kts | 85° |
| 2026-04-16 13:38 | 44.56682 | 25.95308 | 2137 ft | 132 kts | 85° |
| 2026-04-16 13:38 | 44.56779 | 25.96590 | 2010 ft | 132 kts | 85° |
| 2026-04-16 13:38 | 44.56874 | 25.97866 | 1831 ft | 131 kts | 85° |
| 2026-04-16 13:38 | 44.56969 | 25.99125 | 1645 ft | 129 kts | 86° |
| 2026-04-16 13:39 | 44.57062 | 26.00379 | 1462 ft | 129 kts | 85° |
| 2026-04-16 13:39 | 44.57157 | 26.01635 | 1290 ft | 130 kts | 84° |
| 2026-04-16 13:39 | 44.57251 | 26.02888 | 1110 ft | 131 kts | 86° |
| 2026-04-16 13:39 | 44.57346 | 26.04157 | 951 ft | 131 kts | 85° |
| 2026-04-16 13:40 | 44.57441 | 26.05422 | 779 ft | 130 kts | 83° |
| 2026-04-16 13:40 | 44.57535 | 26.06677 | 602 ft | 130 kts | 82° |
| 2026-04-16 13:40 | 44.57629 | 26.07930 | 422 ft | 128 kts | 84° |
| 2026-04-16 13:40 | 44.57721 | 26.09146 | 320 ft | 113 kts | 84° |
| 2026-04-16 13:41 | 44.57785 | 26.09995 | 319 ft | 66 kts | 84° |
| 2026-04-16 13:41 | 44.57819 | 26.10473 | 319 ft | 41 kts | 85° |
| 2026-04-16 13:41 | 44.57828 | 26.10840 | 317 ft | 34 kts | 95° |
| 2026-04-16 13:41 | 44.57775 | 26.11075 | 315 ft | 0 kts | 114° |
| 2026-04-16 13:42 | 44.57775 | 26.11076 | 316 ft | 1 kts | 114° |
| 2026-04-16 13:42 | 44.57766 | 26.11104 | 315 ft | 5 kts | 114° |
| 2026-04-16 13:43 | 44.57748 | 26.11145 | 315 ft | 4 kts | 139° |
| 2026-04-16 13:43 | 44.57730 | 26.11151 | 317 ft | 2 kts | 193° |
| 2026-04-16 13:43 | 44.57713 | 26.11129 | 317 ft | 6 kts | 242° |
| 2026-04-16 13:43 | 44.57695 | 26.11053 | 316 ft | 8 kts | 258° |
| 2026-04-16 13:44 | 44.57685 | 26.10982 | 317 ft | 7 kts | 262° |
| 2026-04-16 13:44 | 44.57679 | 26.10917 | 317 ft | 6 kts | 265° |
| 2026-04-16 13:44 | 44.57676 | 26.10858 | 318 ft | 7 kts | 265° |
| 2026-04-16 13:44 | 44.57671 | 26.10776 | 318 ft | 10 kts | 265° |
| 2026-04-16 13:45 | 44.57663 | 26.10660 | 318 ft | 13 kts | 264° |
| 2026-04-16 13:45 | 44.57653 | 26.10528 | 317 ft | 14 kts | 264° |
| 2026-04-16 13:45 | 44.57642 | 26.10391 | 319 ft | 14 kts | 264° |
| 2026-04-16 13:45 | 44.57632 | 26.10249 | 319 ft | 15 kts | 264° |
| 2026-04-16 13:46 | 44.57618 | 26.10099 | 320 ft | 17 kts | 262° |
| 2026-04-16 13:46 | 44.57603 | 26.09917 | 320 ft | 21 kts | 263° |
| 2026-04-16 13:46 | 44.57591 | 26.09779 | 320 ft | 8 kts | 263° |
| 2026-04-16 13:46 | 44.57584 | 26.09677 | 321 ft | 14 kts | 265° |
| 2026-04-16 13:47 | 44.57573 | 26.09508 | 321 ft | 21 kts | 265° |